LFRO/LAI METAR and TAF weather

Enter ICAO airport designator
Station Type Date Time Source
LFRO METAR 2020/10/20 17:30 UTC NOAA

LFRO 201730Z AUTO 15007KT CAVOK 16/12 Q1000


Station Type Date Time Source
LFRO Decoded METAR 2020/10/20 17:30 UTC NOAA

Lannion / Servel, France (LFRO) 48-45N 003-28W
Oct 20, 2020 - 01:30 PM EDT / 2020.10.20 1730 UTC
Wind: from the SSE (150 degrees) at 8 MPH (7 KT):0
Visibility: greater than 7 mile(s):0
Temperature: 60 F (16 C)
Dew Point: 53 F (12 C)
Relative Humidity: 77%
Pressure (altimeter): 29.53 in. Hg (1000 hPa)
ob: LFRO 201730Z AUTO 15007KT CAVOK 16/12 Q1000
cycle: 17

Station Type Date Time Source
LFRO TAF 2019/05/15 19:06 UTC NOAA

TAF LFRO 151936Z 1519/1612 CNL

Example: see airport list